Time;durP1;ratioP1;P1;durP2;ratioP2;P2;SDS_P1;SDS_P2;PMS_P1;PMS_P2;Temp;Humidity;BMP_temperature;BMP_pressure;BME280_temperature;BME280_humidity;BME280_pressure;Samples;Min_cycle;Max_cycle;Signal;HPM_P1;HPM_P2
2022/07/09 00:01:57;;;;;;;5.78;2.03;;;;;;;12.21;100.00;99876.94;5002279;28;20404;-68
2022/07/09 00:04:22;;;;;;;3.55;1.90;;;;;;;12.16;100.00;99869.38;4991590;28;20112;-68
2022/07/09 00:06:47;;;;;;;1.92;1.77;;;;;;;12.07;100.00;99871.31;4992549;28;20026;-68
2022/07/09 00:09:13;;;;;;;4.65;2.15;;;;;;;12.11;100.00;99870.97;4989842;28;20022;-68
2022/07/09 00:11:38;;;;;;;5.30;2.28;;;;;;;12.09;100.00;99868.44;4990603;28;20073;-68
2022/07/09 00:14:03;;;;;;;4.75;2.17;;;;;;;12.01;100.00;99863.94;4986872;28;20042;-69
2022/07/09 00:16:29;;;;;;;6.72;2.47;;;;;;;11.86;100.00;99838.66;4989583;28;20029;-68
2022/07/09 00:18:54;;;;;;;7.50;2.50;;;;;;;11.99;100.00;99862.44;4988775;28;20454;-68
2022/07/09 00:21:19;;;;;;;8.60;2.35;;;;;;;12.04;100.00;99866.25;4989455;28;20029;-68
2022/07/09 00:23:45;;;;;;;2.67;1.80;;;;;;;11.94;100.00;99857.56;4987950;28;20476;-68
2022/07/09 00:26:10;;;;;;;4.22;2.00;;;;;;;11.94;100.00;99844.00;4990665;28;20511;-68
2022/07/09 00:28:35;;;;;;;6.28;2.00;;;;;;;12.09;100.00;99862.16;4985943;28;20033;-68
2022/07/09 00:31:00;;;;;;;2.63;1.80;;;;;;;11.99;100.00;99857.00;4993371;28;20026;-68
2022/07/09 00:33:26;;;;;;;5.65;1.88;;;;;;;11.87;100.00;99847.66;4992012;28;20125;-68
2022/07/09 00:35:52;;;;;;;3.90;2.13;;;;;;;11.77;100.00;99859.59;4986135;28;20641;-68
2022/07/09 00:38:17;;;;;;;3.88;1.88;;;;;;;11.80;100.00;99856.50;4989304;28;20022;-68
2022/07/09 00:40:42;;;;;;;6.75;2.13;;;;;;;11.90;100.00;99860.84;4989720;28;20026;-68
2022/07/09 00:43:18;;;;;;;4.40;2.20;;;;;;;11.84;100.00;99848.81;4992516;28;20026;-68
2022/07/09 00:45:44;;;;;;;4.40;2.08;;;;;;;11.82;100.00;99845.47;4992157;28;20037;-68
2022/07/09 00:48:10;;;;;;;3.00;2.10;;;;;;;11.75;100.00;99850.78;4990206;28;20427;-68
2022/07/09 00:50:36;;;;;;;6.93;2.70;;;;;;;11.62;100.00;99839.75;4984625;28;20018;-67
2022/07/09 00:53:01;;;;;;;5.68;2.88;;;;;;;11.63;100.00;99853.13;4990742;28;20105;-68
2022/07/09 00:55:27;;;;;;;4.85;2.17;;;;;;;11.61;100.00;99846.19;4992627;28;20164;-68
2022/07/09 00:57:52;;;;;;;4.25;2.08;;;;;;;11.48;100.00;99821.59;4989194;28;20033;-68
2022/07/09 01:00:18;;;;;;;4.80;2.03;;;;;;;11.57;100.00;99843.00;4985292;28;20088;-68
2022/07/09 01:02:44;;;;;;;6.70;2.10;;;;;;;11.50;100.00;99830.38;4992846;28;20026;-68
2022/07/09 01:05:10;;;;;;;6.28;2.45;;;;;;;11.46;100.00;99840.75;4984862;28;20155;-69
2022/07/09 01:07:35;;;;;;;5.88;2.20;;;;;;;11.58;100.00;99828.44;4991194;28;20070;-68
2022/07/09 01:10:00;;;;;;;4.22;2.03;;;;;;;11.47;100.00;99828.88;4986065;28;20035;-68
2022/07/09 01:12:26;;;;;;;3.70;1.95;;;;;;;11.30;100.00;99824.66;4986149;28;20031;-68
2022/07/09 01:14:51;;;;;;;3.70;2.20;;;;;;;11.31;100.00;99831.72;4991071;28;20030;-68
2022/07/09 01:17:17;;;;;;;10.18;2.72;;;;;;;11.23;100.00;99812.84;4991661;28;20065;-68
2022/07/09 01:19:42;;;;;;;8.82;1.95;;;;;;;11.45;100.00;99820.09;4992095;28;20113;-68
2022/07/09 01:22:07;;;;;;;2.92;2.28;;;;;;;11.42;100.00;99834.00;4987021;28;20388;-68
2022/07/09 01:24:33;;;;;;;6.65;2.50;;;;;;;11.33;100.00;99829.69;4997301;28;20447;-68
2022/07/09 01:26:59;;;;;;;4.47;2.30;;;;;;;11.33;100.00;99827.81;4988945;28;20054;-69
2022/07/09 01:29:24;;;;;;;6.15;2.00;;;;;;;11.22;100.00;99820.13;4986968;28;20022;-68
2022/07/09 01:31:50;;;;;;;4.63;2.50;;;;;;;11.16;100.00;99801.88;4985846;28;20041;-68
2022/07/09 01:34:15;;;;;;;5.72;2.40;;;;;;;11.11;100.00;99816.00;4989974;28;20185;-68
2022/07/09 01:36:40;;;;;;;4.95;2.28;;;;;;;11.02;100.00;99805.41;4990495;28;20105;-68
2022/07/09 01:39:06;;;;;;;4.57;2.10;;;;;;;11.15;100.00;99811.03;4986179;28;20043;-68
2022/07/09 01:41:32;;;;;;;4.38;2.25;;;;;;;11.21;100.00;99810.31;4988142;28;20026;-68
2022/07/09 01:43:57;;;;;;;3.88;2.10;;;;;;;11.27;100.00;99814.19;4990560;28;20027;-69
2022/07/09 01:46:23;;;;;;;6.65;2.00;;;;;;;11.18;100.00;99811.50;4988855;28;20045;-69
2022/07/09 01:48:48;;;;;;;6.53;2.10;;;;;;;11.07;100.00;99811.13;4985966;28;20019;-69
2022/07/09 01:51:13;;;;;;;5.20;2.60;;;;;;;11.05;100.00;99803.16;4986517;28;20037;-69
2022/07/09 01:53:39;;;;;;;6.00;2.38;;;;;;;11.07;100.00;99803.84;4987573;28;20070;-69
2022/07/09 01:56:07;;;;;;;3.78;2.58;;;;;;;10.97;100.00;99800.53;4989070;28;20403;-69
2022/07/09 01:58:33;;;;;;;5.30;2.85;;;;;;;10.97;100.00;99787.81;4987400;28;20117;-68
2022/07/09 02:00:58;;;;;;;3.03;2.08;;;;;;;10.96;100.00;99785.31;4987203;28;20424;-68
2022/07/09 02:03:23;;;;;;;5.05;2.40;;;;;;;10.89;100.00;99790.59;5002213;28;20054;-69
2022/07/09 02:05:49;;;;;;;5.60;2.28;;;;;;;10.81;100.00;99782.53;4991661;28;20022;-68
2022/07/09 02:08:15;;;;;;;5.30;2.60;;;;;;;10.86;100.00;99782.84;4990628;28;20114;-68
2022/07/09 02:10:40;;;;;;;5.38;2.28;;;;;;;10.69;100.00;99776.72;4984521;28;20032;-69
2022/07/09 02:13:06;;;;;;;6.15;2.60;;;;;;;10.69;100.00;99786.72;4983845;28;20125;-69
2022/07/09 02:15:31;;;;;;;5.05;2.63;;;;;;;10.69;100.00;99782.13;4987633;28;20026;-68
2022/07/09 02:17:56;;;;;;;5.82;2.53;;;;;;;10.65;100.00;99788.09;4992061;28;20547;-68
2022/07/09 02:20:22;;;;;;;5.57;2.65;;;;;;;10.62;100.00;99786.59;4991416;28;20544;-69
2022/07/09 02:22:48;;;;;;;4.63;2.55;;;;;;;10.56;100.00;99784.59;4990646;28;20113;-69
2022/07/09 02:25:13;;;;;;;6.63;2.70;;;;;;;10.59;100.00;99781.53;5004013;28;20058;-69
2022/07/09 02:27:38;;;;;;;9.50;2.92;;;;;;;10.78;100.00;99782.06;4989369;28;20572;-69
2022/07/09 02:30:04;;;;;;;5.43;2.95;;;;;;;10.72;100.00;99784.47;4991650;28;20038;-69
2022/07/09 02:32:29;;;;;;;8.43;3.30;;;;;;;10.68;100.00;99785.84;4992097;28;20018;-68
2022/07/09 02:34:55;;;;;;;5.13;2.80;;;;;;;10.64;100.00;99781.00;4993418;28;20408;-69
2022/07/09 02:37:20;;;;;;;5.13;2.60;;;;;;;10.53;100.00;99791.22;4994008;28;20468;-69
2022/07/09 02:39:45;;;;;;;7.50;2.03;;;;;;;10.61;100.00;99784.03;4994090;28;20037;-69
2022/07/09 02:42:11;;;;;;;4.20;2.35;;;;;;;10.61;100.00;99798.44;4991764;28;20080;-69
2022/07/09 02:44:36;;;;;;;5.93;2.33;;;;;;;10.74;100.00;99792.41;4995289;28;20072;-69
2022/07/09 02:47:01;;;;;;;4.43;2.53;;;;;;;10.63;100.00;99788.25;4989340;28;20033;-69
2022/07/09 02:49:27;;;;;;;6.68;2.65;;;;;;;10.51;100.00;99770.75;4991969;28;20030;-68
2022/07/09 02:51:53;;;;;;;6.60;2.50;;;;;;;10.53;100.00;99795.75;4992006;28;20022;-69
2022/07/09 02:54:18;;;;;;;3.97;2.72;;;;;;;10.51;100.00;99789.72;4996405;28;20046;-69
2022/07/09 02:56:43;;;;;;;5.68;2.65;;;;;;;10.48;100.00;99795.47;4995520;28;20029;-69
2022/07/09 02:59:09;;;;;;;6.35;2.40;;;;;;;10.45;100.00;99796.69;4990754;28;20457;-69
2022/07/09 03:01:34;;;;;;;4.88;2.58;;;;;;;10.40;100.00;99785.53;4989509;28;20026;-68
2022/07/09 03:04:00;;;;;;;4.85;2.53;;;;;;;10.38;100.00;99797.56;4996766;28;20026;-69
2022/07/09 03:06:26;;;;;;;5.32;2.60;;;;;;;10.34;100.00;99791.66;4990102;28;20027;-69
2022/07/09 03:08:51;;;;;;;8.18;2.60;;;;;;;10.32;100.00;99790.97;4992028;28;20037;-68
2022/07/09 03:11:16;;;;;;;5.97;2.42;;;;;;;10.27;100.00;99796.03;4989290;28;20171;-68
2022/07/09 03:13:42;;;;;;;3.50;2.53;;;;;;;10.26;100.00;99797.06;4992139;28;20381;-68
2022/07/09 03:16:07;;;;;;;8.55;3.00;;;;;;;10.17;100.00;99806.25;4986704;28;20026;-69
2022/07/09 03:18:33;;;;;;;4.43;2.83;;;;;;;10.10;100.00;99811.50;4993003;28;20022;-69
2022/07/09 03:20:58;;;;;;;5.13;2.53;;;;;;;10.07;100.00;99806.47;4990647;28;20088;-69
2022/07/09 03:23:24;;;;;;;7.32;2.72;;;;;;;10.06;100.00;99810.16;4984736;28;20089;-69
2022/07/09 03:25:49;;;;;;;9.75;2.63;;;;;;;10.04;100.00;99801.41;4990464;28;20033;-68
2022/07/09 03:28:14;;;;;;;3.85;2.83;;;;;;;9.98;100.00;99805.66;4991937;28;20030;-69
2022/07/09 03:30:40;;;;;;;6.15;2.60;;;;;;;9.98;100.00;99802.09;4995341;28;20400;-69
2022/07/09 03:33:06;;;;;;;6.05;2.75;;;;;;;10.13;100.00;99803.03;4989430;28;20128;-69
2022/07/09 03:35:31;;;;;;;8.05;2.58;;;;;;;10.06;100.00;99805.63;4985438;28;20440;-68
2022/07/09 03:37:56;;;;;;;8.90;2.90;;;;;;;10.08;100.00;99806.25;4985223;28;20033;-69
2022/07/09 03:40:22;;;;;;;4.55;2.80;;;;;;;10.04;100.00;99794.13;4994453;28;20030;-69
2022/07/09 03:42:48;;;;;;;5.10;2.75;;;;;;;10.14;100.00;99807.44;4985767;28;20023;-68
2022/07/09 03:45:13;;;;;;;7.38;2.90;;;;;;;10.14;100.00;99802.03;4993027;28;20393;-69
2022/07/09 03:47:39;;;;;;;8.27;2.60;;;;;;;10.16;100.00;99799.16;4993939;28;20034;-69
2022/07/09 03:50:05;;;;;;;5.53;2.83;;;;;;;10.28;100.00;99795.06;4989029;28;20030;-69
2022/07/09 03:52:30;;;;;;;4.35;2.80;;;;;;;10.39;100.00;99804.66;4989858;28;20507;-69
2022/07/09 03:54:55;;;;;;;4.25;2.33;;;;;;;10.53;100.00;99795.75;4991347;28;20515;-69
2022/07/09 03:57:21;;;;;;;4.78;2.70;;;;;;;10.59;100.00;99795.06;4993811;28;20566;-69
2022/07/09 03:59:46;;;;;;;3.88;2.50;;;;;;;10.75;100.00;99800.34;4987963;28;20037;-69
2022/07/09 04:02:12;;;;;;;5.32;2.45;;;;;;;10.65;100.00;99777.25;5029479;23;20047;-67
2022/07/09 04:04:37;;;;;;;4.78;2.92;;;;;;;10.82;100.00;99794.22;4993891;28;20057;-67
2022/07/09 04:07:03;;;;;;;7.25;2.80;;;;;;;10.70;100.00;99770.28;4987886;28;20026;-67
2022/07/09 04:09:28;;;;;;;4.38;2.67;;;;;;;10.91;100.00;99787.72;4986821;28;20034;-67
2022/07/09 04:11:53;;;;;;;4.68;2.65;;;;;;;11.00;100.00;99796.63;4979835;28;20022;-67
2022/07/09 04:14:19;;;;;;;3.90;2.47;;;;;;;11.10;100.00;99799.91;4975001;28;20030;-66
2022/07/09 04:16:46;;;;;;;7.32;3.20;;;;;;;11.16;100.00;99802.75;4970854;28;20019;-66
2022/07/09 04:19:11;;;;;;;6.45;3.00;;;;;;;11.19;100.00;99801.53;4963854;28;20113;-67
2022/07/09 04:21:37;;;;;;;8.25;2.70;;;;;;;11.22;100.00;99794.91;4967204;28;20166;-67
2022/07/09 04:24:02;;;;;;;4.18;2.70;;;;;;;11.32;100.00;99798.22;4966145;28;20472;-66
2022/07/09 04:26:27;;;;;;;5.70;3.03;;;;;;;11.49;100.00;99807.84;4973302;28;20030;-67
2022/07/09 04:28:53;;;;;;;4.13;2.78;;;;;;;11.50;100.00;99787.88;4964216;28;20045;-67
2022/07/09 04:31:19;;;;;;;6.10;2.70;;;;;;;11.82;100.00;99813.78;4972008;28;20109;-67
2022/07/09 04:33:44;;;;;;;5.15;2.60;;;;;;;11.75;100.00;99790.31;4965570;28;20038;-67
2022/07/09 04:36:10;;;;;;;7.18;2.90;;;;;;;11.81;100.00;99811.25;4972018;28;20385;-67
2022/07/09 04:38:35;;;;;;;8.18;2.75;;;;;;;11.83;100.00;99818.16;4961269;28;20105;-66
2022/07/09 04:41:01;;;;;;;5.95;2.83;;;;;;;11.86;100.00;99814.28;4970863;28;20130;-67
2022/07/09 04:43:26;;;;;;;4.95;2.80;;;;;;;11.88;100.00;99804.09;4957616;28;20209;-71
2022/07/09 04:45:51;;;;;;;3.08;2.33;;;;;;;11.90;100.00;99783.06;4960206;28;20411;-70
2022/07/09 04:48:17;;;;;;;7.20;2.70;;;;;;;12.23;100.00;99794.31;4960545;28;20054;-70
2022/07/09 04:50:42;;;;;;;5.13;2.75;;;;;;;12.33;100.00;99782.34;4968909;28;20038;-71
2022/07/09 04:53:07;;;;;;;7.80;2.53;;;;;;;12.54;100.00;99804.06;4969288;28;20038;-71
2022/07/09 04:55:33;;;;;;;5.63;2.80;;;;;;;12.62;100.00;99805.84;4965881;28;20085;-71
2022/07/09 04:57:58;;;;;;;7.10;2.47;;;;;;;12.85;100.00;99817.38;4968428;28;20030;-70
2022/07/09 05:00:23;;;;;;;3.53;2.28;;;;;;;12.91;100.00;99808.44;4971631;28;20548;-72
2022/07/09 05:02:49;;;;;;;6.60;2.58;;;;;;;13.14;100.00;99812.84;4967133;28;20033;-71
2022/07/09 05:05:14;;;;;;;4.32;2.60;;;;;;;13.08;100.00;99795.44;4965337;28;20089;-72
2022/07/09 05:07:41;;;;;;;3.53;2.10;;;;;;;13.40;100.00;99812.25;4964824;28;20058;-71
2022/07/09 05:10:07;;;;;;;5.68;2.00;;;;;;;13.41;100.00;99794.91;4969821;28;20037;-72
2022/07/09 05:12:33;;;;;;;3.15;2.45;;;;;;;13.67;100.00;99817.88;4970390;28;20019;-70
2022/07/09 05:14:58;;;;;;;5.25;2.42;;;;;;;13.45;100.00;99782.59;4961768;28;20046;-70
2022/07/09 05:17:24;;;;;;;4.40;2.30;;;;;;;13.79;100.00;99803.53;4970142;28;20023;-69
2022/07/09 05:19:50;;;;;;;3.15;2.00;;;;;;;13.72;100.00;99789.03;4972593;28;20042;-62
2022/07/09 05:22:15;;;;;;;6.32;2.50;;;;;;;13.81;100.00;99792.47;4973343;28;20401;-69
2022/07/09 05:24:40;;;;;;;6.32;2.30;;;;;;;13.75;100.00;99793.25;4969946;28;20061;-70
2022/07/09 05:27:06;;;;;;;4.38;2.35;;;;;;;13.87;100.00;99779.94;4965741;28;20393;-70
2022/07/09 05:29:32;;;;;;;4.90;2.08;;;;;;;14.06;100.00;99800.97;4972736;28;20077;-71
2022/07/09 05:31:57;;;;;;;4.18;2.47;;;;;;;14.16;99.68;99806.88;4970431;28;20045;-68
2022/07/09 05:34:23;;;;;;;4.07;2.10;;;;;;;14.35;96.52;99807.16;4966201;28;20062;-66
2022/07/09 05:36:48;;;;;;;6.78;2.42;;;;;;;14.65;96.04;99805.00;4967889;28;20081;-67
2022/07/09 05:39:14;;;;;;;5.97;2.47;;;;;;;14.74;93.63;99808.38;4969515;28;20034;-66
2022/07/09 05:41:39;;;;;;;7.00;2.13;;;;;;;14.82;94.06;99791.84;4970866;28;20033;-71
2022/07/09 05:44:05;;;;;;;2.97;2.05;;;;;;;15.15;91.82;99807.41;4967538;28;20492;-69
2022/07/09 05:46:30;;;;;;;5.47;2.28;;;;;;;14.97;92.60;99808.84;4966961;28;20030;-69
2022/07/09 05:48:55;;;;;;;6.80;2.40;;;;;;;14.95;92.65;99771.94;4964031;28;20400;-69
2022/07/09 05:51:21;;;;;;;6.18;2.25;;;;;;;15.19;94.20;99803.19;4965087;28;20023;-71
2022/07/09 05:53:47;;;;;;;3.97;2.17;;;;;;;15.26;93.58;99796.69;4967353;28;20041;-69
2022/07/09 05:56:12;;;;;;;5.90;2.33;;;;;;;15.61;90.51;99803.81;4972102;28;20418;-67
2022/07/09 05:58:38;;;;;;;5.90;2.30;;;;;;;15.74;88.32;99793.75;4966061;28;20042;-69
2022/07/09 06:01:05;;;;;;;6.15;2.58;;;;;;;16.28;86.15;99802.63;4973580;28;20027;-68
2022/07/09 06:03:31;;;;;;;10.52;2.60;;;;;;;16.52;82.08;99795.59;4969273;28;20027;-68
2022/07/09 06:05:56;;;;;;;5.68;1.73;;;;;;;16.67;82.76;99795.31;4973671;28;20027;-68
2022/07/09 06:08:21;;;;;;;4.15;1.60;;;;;;;16.82;81.61;99795.03;4970617;28;20031;-69
2022/07/09 06:10:47;;;;;;;3.35;1.63;;;;;;;16.77;80.17;99768.38;4968384;28;20034;-68
2022/07/09 06:13:12;;;;;;;4.50;1.92;;;;;;;17.15;78.25;99797.53;4966227;28;20041;-68
2022/07/09 06:15:37;;;;;;;3.35;1.35;;;;;;;17.36;76.93;99793.59;4968889;28;20118;-68
2022/07/09 06:18:03;;;;;;;3.28;1.60;;;;;;;17.43;74.47;99791.63;4967912;28;20051;-70
2022/07/09 06:20:28;;;;;;;4.60;1.70;;;;;;;17.60;73.36;99796.53;4967553;28;20061;-68
2022/07/09 06:22:54;;;;;;;5.68;1.80;;;;;;;17.96;71.24;99795.78;4970465;28;20033;-68
2022/07/09 06:25:19;;;;;;;4.70;1.55;;;;;;;17.97;71.09;99786.50;4972080;28;20031;-67
2022/07/09 06:27:44;;;;;;;4.75;1.65;;;;;;;18.00;69.63;99788.81;4971170;28;20109;-69
2022/07/09 06:30:10;;;;;;;5.32;2.28;;;;;;;18.01;68.69;99787.72;4963588;28;20049;-68
2022/07/09 06:32:35;;;;;;;5.57;1.90;;;;;;;18.25;68.41;99776.91;4969614;28;20030;-68
2022/07/09 06:35:00;;;;;;;13.00;2.10;;;;;;;18.93;64.25;99790.34;4965666;28;20111;-68
2022/07/09 06:37:26;;;;;;;4.60;1.88;;;;;;;19.08;61.66;99783.59;4961770;28;20035;-67
2022/07/09 06:39:55;;;;;;;4.63;1.98;;;;;;;19.22;61.52;99787.78;4968598;28;20065;-68
2022/07/09 06:42:21;;;;;;;9.65;2.20;;;;;;;19.12;61.17;99785.63;4963674;28;20023;-69
2022/07/09 06:44:46;;;;;;;9.00;1.77;;;;;;;19.98;58.80;99782.47;4967418;28;20034;-68
2022/07/09 06:47:12;;;;;;;6.53;1.75;;;;;;;20.24;56.71;99775.63;4971796;28;20057;-68
2022/07/09 06:49:37;;;;;;;5.75;1.92;;;;;;;20.87;54.62;99782.09;4972038;28;20029;-73
2022/07/09 06:52:03;;;;;;;3.88;1.88;;;;;;;20.85;55.09;99784.25;4971581;28;20046;-73
2022/07/09 06:54:29;;;;;;;3.63;1.30;;;;;;;21.48;53.32;99782.34;4967651;28;20400;-69
2022/07/09 06:56:56;;;;;;;6.97;1.55;;;;;;;21.27;53.04;99776.47;4963552;28;20027;-70
2022/07/09 06:59:22;;;;;;;3.83;1.95;;;;;;;21.30;53.16;99780.63;4966934;28;20038;-70
2022/07/09 07:01:47;;;;;;;4.07;1.67;;;;;;;21.14;53.71;99783.16;4972561;28;20114;-70
2022/07/09 07:04:14;;;;;;;5.35;1.98;;;;;;;21.32;52.74;99761.97;4971250;28;20109;-71
2022/07/09 07:06:43;;;;;;;8.63;2.20;;;;;;;22.59;50.34;99765.69;4970149;28;20019;-72
2022/07/09 07:09:09;;;;;;;7.80;1.70;;;;;;;23.59;48.29;99760.53;4971390;28;20042;-72
2022/07/09 07:11:35;;;;;;;7.90;1.58;;;;;;;25.11;44.17;99769.75;4968860;28;20027;-72
2022/07/09 07:14:00;;;;;;;4.22;1.73;;;;;;;24.43;45.29;99774.56;4972250;28;20031;-72
2022/07/09 07:16:25;;;;;;;4.57;1.60;;;;;;;23.19;47.14;99756.38;4967767;28;20551;-75
2022/07/09 07:18:50;;;;;;;6.68;1.67;;;;;;;22.44;50.11;99774.63;4973677;28;20083;-75
2022/07/09 07:21:16;;;;;;;4.95;1.40;;;;;;;22.33;50.45;99767.31;4974022;28;20092;-73
2022/07/09 07:23:41;;;;;;;3.58;1.60;;;;;;;22.89;48.59;99765.16;4973530;28;20065;-71
2022/07/09 07:26:07;;;;;;;6.20;1.83;;;;;;;24.00;46.25;99773.81;4968270;28;20038;-72
2022/07/09 07:28:33;;;;;;;3.25;1.60;;;;;;;25.46;42.97;99754.25;4971326;28;20019;-68
2022/07/09 07:30:59;;;;;;;5.97;1.85;;;;;;;26.09;41.87;99764.16;4970955;28;20033;-68
2022/07/09 07:33:24;;;;;;;6.13;1.67;;;;;;;28.00;38.86;99743.91;4970889;28;20058;-68
2022/07/09 07:35:49;;;;;;;4.90;1.52;;;;;;;30.73;34.36;99764.19;4967887;28;20511;-70
2022/07/09 07:38:15;;;;;;;5.35;1.25;;;;;;;31.65;32.34;99762.81;4966080;28;20034;-69
2022/07/09 07:40:40;;;;;;;3.15;1.45;;;;;;;32.41;31.18;99761.84;4970528;28;20054;-70
2022/07/09 07:43:05;;;;;;;5.60;1.55;;;;;;;30.75;32.89;99765.53;4971714;28;20050;-70
2022/07/09 07:45:31;;;;;;;9.82;1.33;;;;;;;31.43;32.26;99765.63;4971035;28;20031;-70
2022/07/09 07:47:57;;;;;;;4.20;1.95;;;;;;;30.13;33.58;99762.38;4970566;28;20169;-70
2022/07/09 07:50:23;;;;;;;3.92;1.35;;;;;;;29.90;34.39;99762.25;4966168;28;20057;-68
2022/07/09 07:52:48;;;;;;;4.57;1.20;;;;;;;29.87;34.10;99762.88;4966546;28;20034;-69
2022/07/09 07:55:14;;;;;;;6.32;1.70;;;;;;;29.75;34.19;99761.72;4967131;28;20035;-69
2022/07/09 07:57:39;;;;;;;4.20;1.20;;;;;;;28.76;35.43;99760.78;4970797;28;20055;-68
2022/07/09 08:00:05;;;;;;;3.45;1.25;;;;;;;30.31;33.92;99757.84;4958589;28;20030;-67
2022/07/09 08:02:31;;;;;;;4.28;1.60;;;;;;;31.14;32.79;99755.69;4972483;28;20472;-67
2022/07/09 08:04:57;;;;;;;6.90;1.10;;;;;;;31.66;31.45;99749.66;4962635;28;20025;-67
2022/07/09 08:07:22;;;;;;;4.38;1.45;;;;;;;30.82;32.66;99742.78;4967360;28;20021;-73
2022/07/09 08:09:47;;;;;;;4.05;1.13;;;;;;;32.33;30.90;99751.41;4972217;28;20033;-70
2022/07/09 08:12:13;;;;;;;6.07;1.30;;;;;;;31.61;31.34;99735.81;4969011;28;20034;-70
2022/07/09 08:14:38;;;;;;;3.10;1.27;;;;;;;33.85;28.78;99731.94;4972234;28;20030;-70
2022/07/09 08:17:04;;;;;;;4.75;1.25;;;;;;;33.22;29.47;99752.03;4973465;28;20034;-68
2022/07/09 08:19:29;;;;;;;4.05;1.10;;;;;;;32.65;29.93;99741.00;4967254;28;20035;-69
2022/07/09 08:21:54;;;;;;;4.45;1.08;;;;;;;33.70;28.96;99750.19;4970566;28;20030;-68
2022/07/09 08:24:20;;;;;;;5.03;0.90;;;;;;;34.44;27.95;99740.44;4964461;28;20057;-68
2022/07/09 08:26:45;;;;;;;2.92;1.23;;;;;;;34.27;28.23;99741.38;4970608;28;20432;-71
2022/07/09 08:29:10;;;;;;;2.38;0.90;;;;;;;34.14;28.03;99734.84;4973184;28;20023;-71
2022/07/09 08:31:36;;;;;;;1.98;0.90;;;;;;;34.24;27.48;99730.78;4973236;28;20050;-71
2022/07/09 08:34:01;;;;;;;2.88;1.10;;;;;;;34.37;28.00;99729.72;4972553;28;20046;-71
2022/07/09 08:36:26;;;;;;;2.75;0.90;;;;;;;33.98;28.24;99722.47;4965118;28;20135;-71
2022/07/09 08:38:52;;;;;;;3.45;0.73;;;;;;;35.62;25.96;99721.59;4968655;28;20027;-69
2022/07/09 08:41:19;;;;;;;3.88;0.90;;;;;;;34.95;27.39;99706.66;4970288;28;20504;-70
2022/07/09 08:43:49;;;;;;;3.45;1.08;;;;;;;35.28;27.19;99715.16;4970148;28;20484;-70
2022/07/09 08:46:15;;;;;;;3.85;1.00;;;;;;;36.39;25.93;99716.97;4968586;28;20035;-71
2022/07/09 08:48:43;;;;;;;2.67;0.93;;;;;;;33.10;29.32;99723.88;4970860;28;20026;-71
2022/07/09 08:51:09;;;;;;;5.10;1.13;;;;;;;34.51;27.43;99723.00;4963937;28;20109;-67
2022/07/09 08:53:39;;;;;;;4.20;0.88;;;;;;;34.05;28.39;99714.34;4966507;28;20473;-67
2022/07/09 08:56:05;;;;;;;1.65;0.82;;;;;;;34.33;28.42;99706.28;4972168;28;20548;-67
2022/07/09 08:58:31;;;;;;;3.90;0.90;;;;;;;34.87;27.86;99705.56;4972910;28;20500;-67
2022/07/09 09:00:58;;;;;;;2.00;0.60;;;;;;;34.81;27.60;99706.94;4971004;28;20392;-64
2022/07/09 09:03:23;;;;;;;4.07;0.80;;;;;;;34.05;28.51;99705.94;4964968;28;20027;-70
2022/07/09 09:06:06;;;;;;;4.13;0.93;;;;;;;33.74;28.49;99695.00;4966134;28;20396;-70
2022/07/09 09:08:40;;;;;;;2.63;0.80;;;;;;;35.40;26.53;99686.22;4964211;28;20023;-70
2022/07/09 09:11:07;;;;;;;2.78;0.75;;;;;;;36.35;25.60;99678.56;4964687;28;20019;-69
2022/07/09 09:13:44;;;;;;;3.10;0.70;;;;;;;34.64;27.29;99682.63;4963763;28;20049;-70
2022/07/09 09:16:10;;;;;;;0.80;0.40;;;;;;;36.16;25.82;99665.09;4970724;28;20154;-70
2022/07/09 09:18:56;;;;;;;3.22;0.70;;;;;;;35.42;26.44;99681.88;4967077;28;20393;-71
2022/07/09 09:21:25;;;;;;;4.47;0.50;;;;;;;35.71;26.04;99675.28;4964257;28;20039;-67
2022/07/09 09:23:52;;;;;;;2.80;0.35;;;;;;;36.43;26.26;99678.41;4971734;28;20033;-67
2022/07/09 09:26:20;;;;;;;1.75;0.45;;;;;;;36.28;25.73;99673.50;4967078;28;20058;-69
2022/07/09 09:28:52;;;;;;;3.00;0.77;;;;;;;36.49;25.43;99675.34;4965323;28;20027;-70
2022/07/09 09:31:22;;;;;;;3.22;0.77;;;;;;;36.47;25.30;99670.06;4966660;28;20503;-70
2022/07/09 09:33:47;;;;;;;3.30;0.85;;;;;;;35.03;27.06;99664.41;4975183;28;20046;-70
2022/07/09 09:36:35;;;;;;;1.63;0.38;;;;;;;34.69;27.44;99657.94;4967540;28;20021;-69
2022/07/09 09:39:18;;;;;;;3.13;0.60;;;;;;;35.16;27.47;99627.91;4971133;28;20023;-72
2022/07/09 09:41:48;;;;;;;2.40;0.85;;;;;;;37.15;25.55;99674.91;4964979;28;20058;-73
2022/07/09 09:44:16;;;;;;;4.03;0.73;;;;;;;35.83;26.27;99668.81;4975513;28;20030;-71
2022/07/09 09:46:43;;;;;;;1.55;0.45;;;;;;;36.51;26.49;99668.19;4975597;28;20019;-71
2022/07/09 09:49:10;;;;;;;1.48;0.55;;;;;;;37.20;25.63;99671.81;4972684;28;20093;-69
2022/07/09 09:51:41;;;;;;;1.38;0.50;;;;;;;36.80;25.34;99671.88;4968110;28;20033;-69
2022/07/09 09:54:06;;;;;;;2.35;0.60;;;;;;;37.24;24.62;99667.09;4972582;28;20055;-69
2022/07/09 09:56:33;;;;;;;3.53;0.65;;;;;;;37.26;25.10;99669.59;4969950;28;20023;-69
2022/07/09 09:58:59;;;;;;;2.97;0.55;;;;;;;35.92;25.33;99663.91;4971783;28;20030;-70
2022/07/09 10:01:25;;;;;;;0.73;0.30;;;;;;;35.87;25.75;99661.31;4971635;28;20112;-68
2022/07/09 10:03:51;;;;;;;2.08;0.68;;;;;;;36.50;25.42;99651.63;4975217;28;20027;-69
2022/07/09 10:06:16;;;;;;;3.00;0.70;;;;;;;35.91;25.56;99639.72;4972053;28;20031;-70
2022/07/09 10:08:41;;;;;;;2.08;0.60;;;;;;;35.93;26.37;99643.00;4973736;28;20101;-69
2022/07/09 10:11:07;;;;;;;2.28;0.50;;;;;;;37.05;25.07;99624.66;4966217;28;20734;-69
2022/07/09 10:13:32;;;;;;;2.47;0.57;;;;;;;37.32;24.90;99639.09;4973312;28;20034;-69
2022/07/09 10:15:59;;;;;;;2.10;0.70;;;;;;;37.12;24.80;99647.41;4973071;28;20286;-69
2022/07/09 10:18:24;;;;;;;2.60;0.65;;;;;;;36.50;26.52;99637.53;4975850;28;20645;-70
2022/07/09 10:20:56;;;;;;;1.52;0.50;;;;;;;35.77;26.35;99650.53;4975160;28;20026;-68
2022/07/09 10:23:22;;;;;;;3.33;0.57;;;;;;;36.31;25.91;99640.97;4966019;28;20143;-69
2022/07/09 10:25:52;;;;;;;2.70;0.50;;;;;;;37.63;24.30;99632.66;4973135;28;20042;-69
2022/07/09 10:28:19;;;;;;;1.38;0.50;;;;;;;38.67;23.05;99635.06;4966160;28;20042;-69
2022/07/09 10:30:46;;;;;;;2.38;0.40;;;;;;;37.68;23.17;99626.75;4967826;28;20046;-70
2022/07/09 10:33:13;;;;;;;1.52;0.40;;;;;;;37.92;24.12;99637.00;4972672;28;20035;-68
2022/07/09 10:35:54;;;;;;;1.97;0.60;;;;;;;35.78;25.75;99624.81;4970669;28;20134;-69
2022/07/09 10:38:24;;;;;;;1.10;0.50;;;;;;;34.50;27.43;99637.06;4961514;28;20054;-68
2022/07/09 10:40:59;;;;;;;1.75;0.55;;;;;;;35.48;25.90;99627.03;4966470;28;20086;-69
2022/07/09 10:43:51;;;;;;;3.50;0.63;;;;;;;35.46;24.93;99635.00;4967950;28;20110;-69
2022/07/09 10:46:17;;;;;;;2.80;0.50;;;;;;;35.67;25.28;99637.72;4968846;28;20081;-68
2022/07/09 10:48:44;;;;;;;1.85;0.40;;;;;;;37.39;24.12;99634.44;4968757;28;20031;-68
2022/07/09 10:51:17;;;;;;;2.65;0.52;;;;;;;38.60;22.58;99632.09;4964777;28;20031;-69
2022/07/09 10:53:42;;;;;;;1.95;0.50;;;;;;;33.72;26.03;99625.19;4966768;28;20038;-69
2022/07/09 10:56:08;;;;;;;1.57;0.30;;;;;;;34.48;26.38;99624.22;4968764;28;20030;-69
2022/07/09 10:58:33;;;;;;;3.33;0.50;;;;;;;35.06;26.26;99615.91;4966310;28;20337;-69
2022/07/09 11:01:00;;;;;;;1.83;0.60;;;;;;;33.72;28.05;99613.97;4969075;28;20105;-68
2022/07/09 11:03:30;;;;;;;1.35;0.47;;;;;;;31.55;30.34;99616.81;4970858;28;20045;-69
2022/07/09 11:05:56;;;;;;;1.33;0.60;;;;;;;30.57;32.65;99615.69;4966975;28;20026;-70
2022/07/09 11:08:22;;;;;;;1.35;0.60;;;;;;;29.62;33.96;99601.56;4966722;28;20365;-69
2022/07/09 11:10:47;;;;;;;1.38;0.60;;;;;;;28.91;35.17;99624.06;4966328;28;20039;-69
2022/07/09 11:13:13;;;;;;;3.90;0.75;;;;;;;28.38;36.71;99619.59;4966391;28;20038;-68
2022/07/09 11:15:38;;;;;;;1.15;0.60;;;;;;;28.17;36.91;99621.03;4966523;28;20035;-69
2022/07/09 11:18:04;;;;;;;1.05;0.63;;;;;;;27.89;37.53;99623.63;4966901;28;20035;-68
2022/07/09 11:20:38;;;;;;;2.72;0.60;;;;;;;28.00;37.12;99615.97;4967350;28;20074;-68
2022/07/09 11:23:04;;;;;;;2.30;0.52;;;;;;;28.43;36.59;99615.91;4967167;28;20038;-69
2022/07/09 11:25:29;;;;;;;3.65;0.60;;;;;;;30.14;32.84;99613.31;4967805;28;20038;-68